createdAt,value
2017-02-21T00:00:16.432Z,933.52
2017-02-21T00:00:44.475Z,933.54
2017-02-21T00:01:12.728Z,933.53
2017-02-21T00:01:40.838Z,933.57
2017-02-21T00:02:08.934Z,933.55
2017-02-21T00:02:37.096Z,933.55
2017-02-21T00:03:05.191Z,933.54
2017-02-21T00:03:33.335Z,933.54
2017-02-21T00:04:01.524Z,933.59
2017-02-21T00:04:29.580Z,933.46
2017-02-21T00:04:57.606Z,933.6
2017-02-21T00:05:25.753Z,933.55
2017-02-21T00:05:53.912Z,933.5
2017-02-21T00:06:22.907Z,933.53
2017-02-21T00:06:51.160Z,933.52
2017-02-21T00:07:19.409Z,933.51
2017-02-21T00:07:47.574Z,933.5
2017-02-21T00:08:15.825Z,933.47
2017-02-21T00:08:44.035Z,933.48
2017-02-21T00:09:12.251Z,933.48
2017-02-21T00:09:40.500Z,933.48
2017-02-21T00:10:08.771Z,933.49
2017-02-21T00:10:36.867Z,933.5
2017-02-21T00:11:05.089Z,933.5
2017-02-21T00:11:33.373Z,933.45
2017-02-21T00:12:01.597Z,933.54
2017-02-21T00:12:29.675Z,933.57
2017-02-21T00:12:57.851Z,933.52
2017-02-21T00:13:26.103Z,933.49
2017-02-21T00:13:54.208Z,933.45
2017-02-21T00:14:22.441Z,933.5
2017-02-21T00:14:50.566Z,933.42
2017-02-21T00:15:18.675Z,933.44
2017-02-21T00:15:46.688Z,933.44
2017-02-21T00:16:14.954Z,933.44
2017-02-21T00:16:43.091Z,933.51
2017-02-21T00:17:11.401Z,933.44
2017-02-21T00:17:39.499Z,933.47
2017-02-21T00:18:07.667Z,933.47
2017-02-21T00:18:35.852Z,933.46
2017-02-21T00:19:03.998Z,933.45
2017-02-21T00:19:32.399Z,933.45
2017-02-21T00:20:00.585Z,933.5
2017-02-21T00:20:28.793Z,933.48
2017-02-21T00:20:56.886Z,933.43
2017-02-21T00:21:25.125Z,933.44
2017-02-21T00:21:53.270Z,933.44
2017-02-21T00:22:21.365Z,933.43
2017-02-21T00:22:49.420Z,933.47
2017-02-21T00:23:17.600Z,933.46
2017-02-21T00:23:45.803Z,933.44
2017-02-21T00:24:14.078Z,933.43
2017-02-21T00:24:42.234Z,933.47
2017-02-21T00:25:10.408Z,933.44
2017-02-21T00:25:38.527Z,933.43
2017-02-21T00:26:06.681Z,933.44
2017-02-21T00:26:34.814Z,933.43
2017-02-21T00:27:03.055Z,933.43
2017-02-21T00:27:31.484Z,933.45
2017-02-21T00:27:59.651Z,933.42
2017-02-21T00:28:27.932Z,933.38
2017-02-21T00:28:56.177Z,933.43
2017-02-21T00:29:24.470Z,933.47
2017-02-21T00:29:52.777Z,933.4
2017-02-21T00:30:21.003Z,933.45
2017-02-21T00:30:49.934Z,933.41
2017-02-21T00:31:18.108Z,933.41
2017-02-21T00:31:46.264Z,933.48
2017-02-21T00:32:14.558Z,933.43
2017-02-21T00:32:42.713Z,933.43
2017-02-21T00:33:10.818Z,933.45
2017-02-21T00:33:38.980Z,933.6
2017-02-21T00:34:07.469Z,933.48
2017-02-21T00:34:35.810Z,933.46
2017-02-21T00:35:04.009Z,933.69
2017-02-21T00:35:32.209Z,933.48
2017-02-21T00:36:00.331Z,933.48
2017-02-21T00:36:28.525Z,933.5
2017-02-21T00:36:56.610Z,933.49
2017-02-21T00:37:24.961Z,933.51
2017-02-21T00:37:53.221Z,933.52
2017-02-21T00:38:21.362Z,933.48
2017-02-21T00:38:49.255Z,933.51
2017-02-21T00:39:17.484Z,933.51
2017-02-21T00:39:45.557Z,933.5
2017-02-21T00:40:13.828Z,933.58
2017-02-21T00:40:42.073Z,933.53
2017-02-21T00:41:10.169Z,933.54
2017-02-21T00:41:38.502Z,933.53
2017-02-21T00:42:06.682Z,933.58
2017-02-21T00:42:34.764Z,933.55
2017-02-21T00:43:03.059Z,933.58
2017-02-21T00:43:31.113Z,933.44
2017-02-21T00:43:59.295Z,933.55
2017-02-21T00:44:27.451Z,933.61
2017-02-21T00:44:55.642Z,933.6
2017-02-21T00:45:23.829Z,933.59
2017-02-21T00:45:51.946Z,933.64
2017-02-21T00:46:20.113Z,933.61
2017-02-21T00:46:48.326Z,933.57
2017-02-21T00:47:16.557Z,933.67
2017-02-21T00:47:44.774Z,933.6
2017-02-21T00:48:12.972Z,933.62
2017-02-21T00:48:41.167Z,933.61
2017-02-21T00:49:09.262Z,933.62
2017-02-21T00:49:37.529Z,933.62
2017-02-21T00:50:05.640Z,933.64
2017-02-21T00:50:33.811Z,933.63
2017-02-21T00:51:01.996Z,933.63
2017-02-21T00:51:30.151Z,933.62
2017-02-21T00:51:58.172Z,933.64
2017-02-21T00:52:26.549Z,933.62
2017-02-21T00:52:54.656Z,933.64
2017-02-21T00:53:22.855Z,933.58
2017-02-21T00:53:50.941Z,933.55
2017-02-21T00:54:19.179Z,933.62
2017-02-21T00:54:47.272Z,933.59
2017-02-21T00:55:15.341Z,933.63
2017-02-21T00:55:43.582Z,933.6
2017-02-21T00:56:11.731Z,933.6
2017-02-21T00:56:39.976Z,933.59
2017-02-21T00:57:08.225Z,933.63
2017-02-21T00:57:36.620Z,933.63
2017-02-21T00:58:04.846Z,933.62
2017-02-21T00:58:33.070Z,933.63
2017-02-21T00:59:01.180Z,933.53
2017-02-21T00:59:29.380Z,933.64
2017-02-21T00:59:57.521Z,933.65
2017-02-21T01:00:25.762Z,933.6
2017-02-21T01:00:53.959Z,933.6
2017-02-21T01:01:22.240Z,933.56
2017-02-21T01:01:50.312Z,933.67
2017-02-21T01:02:18.616Z,933.61
2017-02-21T01:02:46.820Z,933.57
2017-02-21T01:03:15.000Z,933.56
2017-02-21T01:03:43.262Z,933.58
2017-02-21T01:04:11.495Z,933.55
2017-02-21T01:04:39.723Z,933.56
2017-02-21T01:05:07.842Z,933.57
2017-02-21T01:05:36.005Z,933.56
2017-02-21T01:06:04.112Z,933.67
2017-02-21T01:06:32.201Z,933.58
2017-02-21T01:07:00.443Z,933.58
2017-02-21T01:07:28.875Z,933.59
2017-02-21T01:07:57.179Z,933.59
2017-02-21T01:08:25.457Z,933.62
2017-02-21T01:08:53.587Z,933.61
2017-02-21T01:09:21.689Z,933.63
2017-02-21T01:09:49.870Z,933.63
2017-02-21T01:10:18.003Z,933.57
2017-02-21T01:10:46.174Z,933.58
2017-02-21T01:11:14.422Z,933.63
2017-02-21T01:11:42.644Z,933.62
2017-02-21T01:12:10.815Z,933.61
2017-02-21T01:12:39.052Z,933.66
2017-02-21T01:13:07.189Z,933.62
2017-02-21T01:13:35.344Z,933.61
2017-02-21T01:14:03.326Z,933.59
2017-02-21T01:14:31.380Z,933.67
2017-02-21T01:14:59.540Z,933.57
2017-02-21T01:15:27.730Z,933.63
2017-02-21T01:15:55.873Z,933.59
2017-02-21T01:16:24.111Z,933.66
2017-02-21T01:16:52.284Z,933.6
2017-02-21T01:17:20.560Z,933.59
2017-02-21T01:17:48.640Z,933.58
2017-02-21T01:18:16.883Z,933.59
2017-02-21T01:18:45.061Z,933.58
2017-02-21T01:19:13.292Z,933.63
2017-02-21T01:19:41.446Z,933.69
2017-02-21T01:20:09.690Z,933.68
2017-02-21T01:20:37.876Z,933.61
2017-02-21T01:21:05.905Z,933.55
2017-02-21T01:21:34.192Z,933.61
2017-02-21T01:22:02.457Z,933.66
2017-02-21T01:22:30.676Z,933.62
2017-02-21T01:22:58.789Z,933.65
2017-02-21T01:23:26.993Z,933.66
2017-02-21T01:23:55.137Z,933.61
2017-02-21T01:24:23.346Z,933.62
2017-02-21T01:24:51.526Z,933.63
2017-02-21T01:25:19.589Z,933.62
2017-02-21T01:25:47.528Z,933.6
2017-02-21T01:26:15.651Z,933.7
2017-02-21T01:26:43.746Z,933.68
2017-02-21T01:27:11.807Z,933.73
2017-02-21T01:27:39.965Z,933.65
2017-02-21T01:28:08.183Z,933.71
2017-02-21T01:28:36.197Z,933.75
2017-02-21T01:29:04.357Z,933.69
2017-02-21T01:29:32.477Z,933.68
2017-02-21T01:30:00.579Z,933.62
2017-02-21T01:30:28.653Z,933.73
2017-02-21T01:30:56.752Z,933.63
2017-02-21T01:31:25.707Z,933.65
2017-02-21T01:31:53.867Z,933.65
2017-02-21T01:32:21.952Z,933.67
2017-02-21T01:32:50.206Z,933.64
2017-02-21T01:33:18.353Z,933.66
2017-02-21T01:33:46.373Z,933.62
2017-02-21T01:34:14.515Z,933.61
2017-02-21T01:34:42.593Z,933.6
2017-02-21T01:35:10.611Z,933.69
2017-02-21T01:35:38.744Z,933.59
2017-02-21T01:36:06.938Z,933.65
2017-02-21T01:36:35.082Z,933.64
2017-02-21T01:37:03.438Z,933.66
2017-02-21T01:37:31.813Z,933.7
2017-02-21T01:37:59.927Z,933.63
2017-02-21T01:38:28.035Z,933.7
2017-02-21T01:38:56.541Z,933.73
2017-02-21T01:39:24.569Z,933.65
2017-02-21T01:39:52.801Z,933.68
2017-02-21T01:40:20.945Z,933.67
2017-02-21T01:40:49.133Z,933.65
2017-02-21T01:41:17.294Z,933.69
2017-02-21T01:41:45.595Z,933.67
2017-02-21T01:42:13.906Z,933.7
2017-02-21T01:42:42.222Z,933.73
2017-02-21T01:43:10.288Z,933.68
2017-02-21T01:43:38.403Z,933.69
2017-02-21T01:44:06.596Z,933.68
2017-02-21T01:44:34.694Z,933.7
2017-02-21T01:45:02.853Z,933.66
2017-02-21T01:45:31.178Z,933.66
2017-02-21T01:45:59.391Z,933.67
2017-02-21T01:46:27.560Z,933.7
2017-02-21T01:46:55.658Z,933.67
2017-02-21T01:47:23.871Z,933.67
2017-02-21T01:47:52.100Z,933.71
2017-02-21T01:48:20.213Z,933.7
2017-02-21T01:48:48.260Z,933.72
2017-02-21T01:49:16.472Z,933.72
2017-02-21T01:49:44.507Z,933.75
2017-02-21T01:50:12.565Z,933.75
2017-02-21T01:50:40.414Z,933.75
2017-02-21T01:51:08.491Z,933.76
2017-02-21T01:51:36.618Z,933.75
2017-02-21T01:52:04.711Z,933.71
2017-02-21T01:52:32.986Z,933.72
2017-02-21T01:53:01.097Z,933.73
2017-02-21T01:53:29.238Z,933.74
2017-02-21T01:53:57.380Z,933.71
2017-02-21T01:54:25.831Z,933.75
2017-02-21T01:54:54.047Z,933.76
2017-02-21T01:55:22.184Z,933.74
2017-02-21T01:55:50.358Z,933.74
2017-02-21T01:56:18.416Z,933.73
2017-02-21T01:56:46.436Z,933.76
2017-02-21T01:57:14.619Z,933.77
2017-02-21T01:57:43.061Z,933.77
2017-02-21T01:58:11.269Z,933.75
2017-02-21T01:58:39.456Z,933.73
2017-02-21T01:59:07.778Z,933.76
2017-02-21T01:59:36.163Z,933.75
2017-02-21T02:00:04.357Z,933.76
2017-02-21T02:00:32.751Z,933.76
2017-02-21T02:01:00.881Z,933.76
2017-02-21T02:01:29.019Z,933.78
2017-02-21T02:01:56.974Z,933.77
2017-02-21T02:02:25.203Z,933.76
2017-02-21T02:02:53.564Z,933.82
2017-02-21T02:03:21.720Z,933.81
2017-02-21T02:03:49.744Z,933.78
2017-02-21T02:04:18.282Z,933.87
2017-02-21T02:04:46.349Z,933.82
2017-02-21T02:05:14.489Z,933.87
2017-02-21T02:05:42.818Z,933.86
2017-02-21T02:06:11.030Z,933.85
2017-02-21T02:06:39.291Z,933.83
2017-02-21T02:07:07.391Z,933.85
2017-02-21T02:07:35.845Z,933.83
2017-02-21T02:08:04.163Z,933.86
2017-02-21T02:08:32.275Z,933.88
2017-02-21T02:09:00.212Z,933.9
2017-02-21T02:09:28.338Z,933.88
2017-02-21T02:09:56.441Z,933.88
2017-02-21T02:10:24.590Z,933.9
2017-02-21T02:10:52.740Z,933.86
2017-02-21T02:11:20.985Z,933.86
2017-02-21T02:11:48.991Z,933.9
2017-02-21T02:12:16.869Z,933.85
2017-02-21T02:12:44.984Z,933.88
2017-02-21T02:13:13.268Z,933.9
2017-02-21T02:13:41.263Z,933.87
2017-02-21T02:14:09.350Z,933.87
2017-02-21T02:14:37.321Z,933.89
2017-02-21T02:15:05.462Z,933.89
2017-02-21T02:15:33.682Z,933.9
2017-02-21T02:16:01.747Z,933.87
2017-02-21T02:16:29.887Z,933.89
2017-02-21T02:16:57.973Z,933.9
2017-02-21T02:17:26.093Z,933.86
2017-02-21T02:17:54.435Z,933.88
2017-02-21T02:18:22.565Z,933.85
2017-02-21T02:18:50.759Z,933.88
2017-02-21T02:19:18.820Z,933.89
2017-02-21T02:19:47.019Z,933.88
2017-02-21T02:20:15.074Z,933.81
2017-02-21T02:20:43.281Z,933.86
2017-02-21T02:21:11.412Z,933.86
2017-02-21T02:21:39.537Z,933.85
2017-02-21T02:22:07.676Z,933.84
2017-02-21T02:22:35.887Z,933.85
2017-02-21T02:23:04.026Z,933.86
2017-02-21T02:23:32.224Z,933.82
2017-02-21T02:24:00.314Z,933.85
2017-02-21T02:24:28.488Z,933.83
2017-02-21T02:24:56.697Z,933.83
2017-02-21T02:25:24.702Z,933.83
2017-02-21T02:25:52.829Z,933.86
2017-02-21T02:26:21.028Z,933.84
2017-02-21T02:26:49.122Z,933.84
2017-02-21T02:27:17.304Z,933.84
2017-02-21T02:27:45.528Z,933.84
2017-02-21T02:28:13.666Z,933.84
2017-02-21T02:28:41.879Z,933.8
2017-02-21T02:29:10.079Z,933.82
2017-02-21T02:29:38.159Z,933.82
2017-02-21T02:30:06.216Z,933.83
2017-02-21T02:30:34.342Z,933.86
2017-02-21T02:31:02.393Z,933.8
2017-02-21T02:31:30.428Z,933.81
2017-02-21T02:31:58.511Z,933.8
2017-02-21T02:32:26.634Z,933.83
2017-02-21T02:32:54.775Z,933.82
2017-02-21T02:33:23.177Z,933.8
2017-02-21T02:33:51.290Z,933.78
2017-02-21T02:34:19.235Z,933.77
2017-02-21T02:34:47.485Z,933.8
2017-02-21T02:35:15.532Z,933.79
2017-02-21T02:35:43.654Z,933.78
2017-02-21T02:36:11.822Z,933.8
2017-02-21T02:36:40.047Z,933.77
2017-02-21T02:37:08.253Z,933.79
2017-02-21T02:37:36.344Z,933.77
2017-02-21T02:38:04.853Z,933.76
2017-02-21T02:38:32.963Z,933.78
2017-02-21T02:39:00.887Z,933.71
2017-02-21T02:39:29.002Z,933.76
2017-02-21T02:39:57.083Z,933.76
2017-02-21T02:40:25.143Z,933.76
2017-02-21T02:40:53.247Z,933.79
2017-02-21T02:41:21.345Z,933.77
2017-02-21T02:41:49.417Z,933.78
2017-02-21T02:42:17.443Z,933.8
2017-02-21T02:42:45.648Z,933.8
2017-02-21T02:43:13.894Z,933.75
2017-02-21T02:43:41.955Z,933.77
2017-02-21T02:44:10.048Z,933.78
2017-02-21T02:44:38.026Z,933.74
2017-02-21T02:45:06.203Z,933.75
2017-02-21T02:45:34.406Z,933.77
2017-02-21T02:46:02.551Z,933.7
2017-02-21T02:46:30.785Z,933.69
2017-02-21T02:46:58.919Z,933.7
2017-02-21T02:47:27.131Z,933.73
2017-02-21T02:47:55.082Z,933.72
2017-02-21T02:48:23.394Z,933.67
2017-02-21T02:48:51.444Z,933.7
2017-02-21T02:49:19.379Z,933.72
2017-02-21T02:49:47.568Z,933.71
2017-02-21T02:50:15.627Z,933.71
2017-02-21T02:50:43.782Z,933.7
2017-02-21T02:51:11.965Z,933.7
2017-02-21T02:51:40.080Z,933.72
2017-02-21T02:52:08.273Z,933.7
2017-02-21T02:52:36.530Z,933.68
2017-02-21T02:53:04.690Z,933.64
2017-02-21T02:53:32.991Z,933.62
2017-02-21T02:54:00.976Z,933.63
2017-02-21T02:54:29.083Z,933.66
2017-02-21T02:54:57.126Z,933.64
2017-02-21T02:55:24.981Z,933.65
2017-02-21T02:55:53.021Z,933.67
2017-02-21T02:56:21.091Z,933.67
2017-02-21T02:56:49.325Z,933.64
2017-02-21T02:57:17.433Z,933.65
2017-02-21T02:57:45.457Z,933.62
2017-02-21T02:58:13.696Z,933.63
2017-02-21T02:58:41.991Z,933.66
2017-02-21T02:59:09.960Z,933.64
2017-02-21T02:59:38.027Z,933.59
2017-02-21T03:00:06.181Z,933.6
2017-02-21T03:00:34.392Z,933.6
2017-02-21T03:01:02.565Z,933.6
2017-02-21T03:01:30.536Z,933.59
2017-02-21T03:01:58.599Z,933.57
2017-02-21T03:02:26.628Z,933.59
2017-02-21T03:02:54.728Z,933.58
2017-02-21T03:03:22.826Z,933.56
2017-02-21T03:03:50.994Z,933.57
2017-02-21T03:04:19.138Z,933.57
2017-02-21T03:04:47.346Z,933.57
2017-02-21T03:05:15.455Z,933.56
2017-02-21T03:05:43.516Z,933.56
2017-02-21T03:06:11.573Z,933.57
2017-02-21T03:06:39.515Z,933.57
2017-02-21T03:07:07.718Z,933.54
2017-02-21T03:07:35.752Z,933.52
2017-02-21T03:08:03.878Z,933.46
2017-02-21T03:08:32.071Z,933.53
2017-02-21T03:09:00.186Z,933.51
2017-02-21T03:09:28.383Z,933.51
2017-02-21T03:09:56.629Z,933.53
2017-02-21T03:10:24.793Z,933.54
2017-02-21T03:10:52.996Z,933.49
2017-02-21T03:11:21.032Z,933.51
2017-02-21T03:11:49.226Z,933.52
2017-02-21T03:12:17.242Z,933.53
2017-02-21T03:12:45.373Z,933.5
2017-02-21T03:13:13.553Z,933.5
2017-02-21T03:13:41.848Z,933.5
2017-02-21T03:14:09.795Z,933.5
2017-02-21T03:14:37.875Z,933.53
2017-02-21T03:15:06.076Z,933.52
2017-02-21T03:15:34.035Z,933.53
2017-02-21T03:16:01.963Z,933.53
2017-02-21T03:16:30.157Z,933.49
2017-02-21T03:16:58.107Z,933.51
2017-02-21T03:17:26.225Z,933.48
2017-02-21T03:17:54.329Z,933.5
2017-02-21T03:18:22.415Z,933.49
2017-02-21T03:18:50.466Z,933.48
2017-02-21T03:19:18.545Z,933.48
2017-02-21T03:19:46.658Z,933.48
2017-02-21T03:20:14.718Z,933.47
2017-02-21T03:20:42.809Z,933.46
2017-02-21T03:21:10.916Z,933.47
2017-02-21T03:21:39.008Z,933.45
2017-02-21T03:22:07.234Z,933.5
2017-02-21T03:22:35.370Z,933.48
2017-02-21T03:23:03.402Z,933.49
2017-02-21T03:23:31.425Z,933.44
2017-02-21T03:23:59.746Z,933.46
2017-02-21T03:24:27.805Z,933.45
2017-02-21T03:24:55.879Z,933.44
2017-02-21T03:25:24.079Z,933.44
2017-02-21T03:25:52.143Z,933.45
2017-02-21T03:26:20.406Z,933.45
2017-02-21T03:26:48.603Z,933.43
2017-02-21T03:27:16.820Z,933.43
2017-02-21T03:27:44.974Z,933.45
2017-02-21T03:28:13.092Z,933.44
2017-02-21T03:28:41.380Z,933.43
2017-02-21T03:29:09.533Z,933.44
2017-02-21T03:29:37.569Z,933.43
2017-02-21T03:30:05.811Z,933.46
2017-02-21T03:30:34.022Z,933.48
2017-02-21T03:31:02.086Z,933.42
2017-02-21T03:31:30.229Z,933.43
2017-02-21T03:31:58.365Z,933.45
2017-02-21T03:32:26.550Z,933.43
2017-02-21T03:32:54.598Z,933.47
2017-02-21T03:33:22.685Z,933.43
2017-02-21T03:33:50.984Z,933.36
2017-02-21T03:34:19.579Z,933.4
2017-02-21T03:34:47.679Z,933.4
2017-02-21T03:35:15.808Z,933.38
2017-02-21T03:35:44.035Z,933.36
2017-02-21T03:36:12.033Z,933.41
2017-02-21T03:36:40.135Z,933.34
2017-02-21T03:37:08.236Z,933.35
2017-02-21T03:37:36.327Z,933.36
2017-02-21T03:38:04.471Z,933.34
2017-02-21T03:38:32.608Z,933.37
2017-02-21T03:39:00.882Z,933.36
2017-02-21T03:39:28.921Z,933.37
2017-02-21T03:39:57.058Z,933.4
2017-02-21T03:40:25.076Z,933.37
2017-02-21T03:40:53.286Z,933.35
2017-02-21T03:41:21.316Z,933.35
2017-02-21T03:41:49.487Z,933.3
2017-02-21T03:42:17.448Z,933.33
2017-02-21T03:42:45.704Z,933.31
2017-02-21T03:43:13.839Z,933.31
2017-02-21T03:43:42.079Z,933.32
2017-02-21T03:44:10.343Z,933.31
2017-02-21T03:44:38.544Z,933.33
2017-02-21T03:45:06.665Z,933.32
2017-02-21T03:45:34.803Z,933.34
2017-02-21T03:46:03.014Z,933.35
2017-02-21T03:46:31.167Z,933.34
2017-02-21T03:46:59.380Z,933.33
2017-02-21T03:47:27.585Z,933.34
2017-02-21T03:47:55.562Z,933.34
2017-02-21T03:48:23.746Z,933.37
2017-02-21T03:48:52.322Z,933.33
2017-02-21T03:49:20.429Z,933.33
2017-02-21T03:49:48.488Z,933.36
2017-02-21T03:50:16.537Z,933.34
2017-02-21T03:50:44.632Z,933.34
2017-02-21T03:51:12.747Z,933.31
2017-02-21T03:51:40.774Z,933.35
2017-02-21T03:52:08.918Z,933.34
2017-02-21T03:52:37.055Z,933.29
2017-02-21T03:53:04.953Z,933.34
2017-02-21T03:53:33.113Z,933.33
2017-02-21T03:54:01.650Z,933.31
2017-02-21T03:54:29.756Z,933.31
2017-02-21T03:54:57.936Z,933.3
2017-02-21T03:55:26.082Z,933.29
2017-02-21T03:55:54.291Z,933.3
2017-02-21T03:56:22.203Z,933.27
2017-02-21T03:56:50.426Z,933.27
2017-02-21T03:57:18.554Z,933.26
2017-02-21T03:57:46.728Z,933.26
2017-02-21T03:58:14.856Z,933.24
2017-02-21T03:58:42.906Z,933.23
2017-02-21T03:59:11.342Z,933.24
2017-02-21T03:59:39.429Z,933.23
2017-02-21T04:00:07.517Z,933.24
2017-02-21T04:00:35.573Z,933.22
2017-02-21T04:01:03.710Z,933.25
2017-02-21T04:01:31.747Z,933.23
2017-02-21T04:01:59.683Z,933.19
2017-02-21T04:02:27.660Z,933.21
2017-02-21T04:02:55.741Z,933.21
2017-02-21T04:03:23.962Z,933.19
2017-02-21T04:03:52.129Z,933.22
2017-02-21T04:04:20.437Z,933.21
2017-02-21T04:04:48.547Z,933.22
2017-02-21T04:05:16.579Z,933.22
2017-02-21T04:05:44.751Z,933.18
2017-02-21T04:06:12.871Z,933.16
2017-02-21T04:06:41.116Z,933.2
2017-02-21T04:07:09.313Z,933.18
2017-02-21T04:07:37.390Z,933.19
2017-02-21T04:08:05.479Z,933.17
2017-02-21T04:08:33.578Z,933.13
2017-02-21T04:09:01.691Z,933.16
2017-02-21T04:09:30.015Z,933.15
2017-02-21T04:09:58.236Z,933.14
2017-02-21T04:10:26.357Z,933.14
2017-02-21T04:10:54.439Z,933.11
2017-02-21T04:11:22.617Z,933.16
2017-02-21T04:11:50.527Z,933.15
2017-02-21T04:12:18.579Z,933.11
2017-02-21T04:12:46.782Z,933.11
2017-02-21T04:13:14.820Z,933.11
2017-02-21T04:13:42.762Z,933.08
2017-02-21T04:14:10.759Z,933.08
2017-02-21T04:14:38.912Z,933.08
2017-02-21T04:15:07.018Z,933.07
2017-02-21T04:15:35.243Z,933.09
2017-02-21T04:16:03.270Z,933.04
2017-02-21T04:16:31.509Z,933.07
2017-02-21T04:16:59.760Z,933.04
2017-02-21T04:17:27.783Z,933.06
2017-02-21T04:17:55.889Z,933.05
2017-02-21T04:18:23.778Z,933.07
2017-02-21T04:18:51.907Z,933.03
2017-02-21T04:19:20.115Z,933.08
2017-02-21T04:19:48.407Z,933.06
2017-02-21T04:20:16.526Z,933.07
2017-02-21T04:20:44.788Z,933.08
2017-02-21T04:21:12.874Z,933.09
2017-02-21T04:21:40.877Z,933.08
2017-02-21T04:22:09.068Z,933.06
2017-02-21T04:22:37.110Z,933.08
2017-02-21T04:23:05.266Z,933.08
2017-02-21T04:23:33.483Z,933.04
2017-02-21T04:24:01.461Z,933.05
2017-02-21T04:24:29.746Z,933.06
2017-02-21T04:24:57.693Z,933.05
2017-02-21T04:25:25.838Z,933.01
2017-02-21T04:25:53.988Z,933
2017-02-21T04:26:22.095Z,933.02
2017-02-21T04:26:50.191Z,933.02
2017-02-21T04:27:18.211Z,933
2017-02-21T04:27:46.349Z,933.04
2017-02-21T04:28:14.428Z,933
2017-02-21T04:28:42.580Z,933.04
2017-02-21T04:29:11.472Z,933.01
2017-02-21T04:29:39.919Z,933
2017-02-21T04:30:08.071Z,933.02
2017-02-21T04:30:36.193Z,932.96
2017-02-21T04:31:04.381Z,932.97
2017-02-21T04:31:32.611Z,932.96
2017-02-21T04:32:00.805Z,932.94
2017-02-21T04:32:28.833Z,932.94
2017-02-21T04:32:56.975Z,932.92
2017-02-21T04:33:25.303Z,932.97
2017-02-21T04:33:53.416Z,932.92
2017-02-21T04:34:21.614Z,932.9
2017-02-21T04:34:49.961Z,932.91
2017-02-21T04:35:17.896Z,932.97
2017-02-21T04:35:45.907Z,932.92
2017-02-21T04:36:13.997Z,932.93
2017-02-21T04:36:42.147Z,932.92
2017-02-21T04:37:10.367Z,932.91
2017-02-21T04:37:38.327Z,932.9
2017-02-21T04:38:06.588Z,932.88
2017-02-21T04:38:34.800Z,932.92
2017-02-21T04:39:02.811Z,932.92
2017-02-21T04:39:31.282Z,932.91
2017-02-21T04:39:59.409Z,932.89
2017-02-21T04:40:27.615Z,932.9
2017-02-21T04:40:55.663Z,932.86
2017-02-21T04:41:23.704Z,932.89
2017-02-21T04:41:51.760Z,932.89
2017-02-21T04:42:19.685Z,932.9
2017-02-21T04:42:47.777Z,932.9
2017-02-21T04:43:16.035Z,932.86
2017-02-21T04:43:44.378Z,932.86
2017-02-21T04:44:12.570Z,932.89
2017-02-21T04:44:40.973Z,932.83
2017-02-21T04:45:09.004Z,932.81
2017-02-21T04:45:37.341Z,932.83
2017-02-21T04:46:05.355Z,932.79
2017-02-21T04:46:33.475Z,932.81
2017-02-21T04:47:01.591Z,932.82
2017-02-21T04:47:29.626Z,932.76
2017-02-21T04:47:57.713Z,932.77
2017-02-21T04:48:25.771Z,932.75
2017-02-21T04:48:53.860Z,932.75
2017-02-21T04:49:22.050Z,932.75
2017-02-21T04:49:50.145Z,932.78
2017-02-21T04:50:18.358Z,932.77
2017-02-21T04:50:46.382Z,932.75
2017-02-21T04:51:14.413Z,932.74
2017-02-21T04:51:42.618Z,932.73
2017-02-21T04:52:10.845Z,932.71
2017-02-21T04:52:38.967Z,932.7
2017-02-21T04:53:06.880Z,932.74
2017-02-21T04:53:35.005Z,932.74
2017-02-21T04:54:03.015Z,932.72
2017-02-21T04:54:31.272Z,932.72
2017-02-21T04:54:59.684Z,932.75
2017-02-21T04:55:27.787Z,932.71
2017-02-21T04:55:56.000Z,932.73
2017-02-21T04:56:24.063Z,932.7
2017-02-21T04:56:52.126Z,932.68
2017-02-21T04:57:20.353Z,932.69
2017-02-21T04:57:48.441Z,932.68
2017-02-21T04:58:16.469Z,932.67
2017-02-21T04:58:44.513Z,932.66
2017-02-21T04:59:12.634Z,932.64
2017-02-21T04:59:40.742Z,932.64
2017-02-21T05:00:08.888Z,932.63
2017-02-21T05:00:36.929Z,932.6
2017-02-21T05:01:05.045Z,932.6
2017-02-21T05:01:33.157Z,932.6
2017-02-21T05:02:01.222Z,932.58
2017-02-21T05:02:29.201Z,932.57
2017-02-21T05:02:57.376Z,932.59
2017-02-21T05:03:25.455Z,932.59
2017-02-21T05:03:53.551Z,932.58
2017-02-21T05:04:21.545Z,932.56
2017-02-21T05:04:49.818Z,932.55
2017-02-21T05:05:18.117Z,932.54
2017-02-21T05:05:46.239Z,932.51
2017-02-21T05:06:14.483Z,932.49
2017-02-21T05:06:42.551Z,932.53
2017-02-21T05:07:10.800Z,932.5
2017-02-21T05:07:38.935Z,932.46
2017-02-21T05:08:06.897Z,932.49
2017-02-21T05:08:34.941Z,932.48
2017-02-21T05:09:03.018Z,932.45
2017-02-21T05:09:31.033Z,932.46
2017-02-21T05:09:59.425Z,932.48
2017-02-21T05:10:27.720Z,932.48
2017-02-21T05:10:55.828Z,932.46
2017-02-21T05:11:24.036Z,932.45
2017-02-21T05:11:52.011Z,932.48
2017-02-21T05:12:20.189Z,932.43
2017-02-21T05:12:48.393Z,932.48
2017-02-21T05:13:16.453Z,932.48
2017-02-21T05:13:44.514Z,932.46
2017-02-21T05:14:12.668Z,932.44
2017-02-21T05:14:40.747Z,932.45
2017-02-21T05:15:09.096Z,932.47
2017-02-21T05:15:37.534Z,932.48
2017-02-21T05:16:05.768Z,932.45
2017-02-21T05:16:33.840Z,932.44
2017-02-21T05:17:01.887Z,932.45
2017-02-21T05:17:30.331Z,932.49
2017-02-21T05:17:58.463Z,932.47
2017-02-21T05:18:26.659Z,932.47
2017-02-21T05:18:54.875Z,932.45
2017-02-21T05:19:22.965Z,932.44
2017-02-21T05:19:51.185Z,932.47
2017-02-21T05:20:19.411Z,932.48
2017-02-21T05:20:47.530Z,932.48
2017-02-21T05:21:15.653Z,932.46
2017-02-21T05:21:43.958Z,932.46
2017-02-21T05:22:12.155Z,932.49
2017-02-21T05:22:40.161Z,932.45
2017-02-21T05:23:08.383Z,932.43
2017-02-21T05:23:36.596Z,932.45
2017-02-21T05:24:04.823Z,932.42
2017-02-21T05:24:32.939Z,932.42
2017-02-21T05:25:01.230Z,932.44
2017-02-21T05:25:29.409Z,932.44
2017-02-21T05:25:57.346Z,932.39
2017-02-21T05:26:25.487Z,932.4
2017-02-21T05:26:53.690Z,932.42
2017-02-21T05:27:21.903Z,932.39
2017-02-21T05:27:50.052Z,932.4
2017-02-21T05:28:18.173Z,932.39
2017-02-21T05:28:46.396Z,932.34
2017-02-21T05:29:14.377Z,932.34
2017-02-21T05:29:42.500Z,932.38
2017-02-21T05:30:10.635Z,932.38
2017-02-21T05:30:38.794Z,932.36
2017-02-21T05:31:06.816Z,932.37
2017-02-21T05:31:34.794Z,932.39
2017-02-21T05:32:02.785Z,932.35
2017-02-21T05:32:30.954Z,932.36
2017-02-21T05:32:59.210Z,932.38
2017-02-21T05:33:27.363Z,932.35
2017-02-21T05:33:55.552Z,932.39
2017-02-21T05:34:23.671Z,932.32
2017-02-21T05:34:51.795Z,932.33
2017-02-21T05:35:20.101Z,932.29
2017-02-21T05:35:48.161Z,932.32
2017-02-21T05:36:16.367Z,932.31
2017-02-21T05:36:44.246Z,932.32
2017-02-21T05:37:12.689Z,932.3
2017-02-21T05:37:40.776Z,932.34
2017-02-21T05:38:08.768Z,932.29
2017-02-21T05:38:36.981Z,932.33
2017-02-21T05:39:05.339Z,932.33
2017-02-21T05:39:33.307Z,932.3
2017-02-21T05:40:01.240Z,932.29
2017-02-21T05:40:29.550Z,932.32
2017-02-21T05:40:57.604Z,932.27
2017-02-21T05:41:25.621Z,932.3
2017-02-21T05:41:53.630Z,932.3
2017-02-21T05:42:21.779Z,932.3
2017-02-21T05:42:49.829Z,932.3
2017-02-21T05:43:18.055Z,932.28
2017-02-21T05:43:46.298Z,932.3
2017-02-21T05:44:14.332Z,932.3
2017-02-21T05:44:42.409Z,932.29
2017-02-21T05:45:10.442Z,932.32
2017-02-21T05:45:38.790Z,932.29
2017-02-21T05:46:06.991Z,932.28
2017-02-21T05:46:35.115Z,932.28
2017-02-21T05:47:03.211Z,932.3
2017-02-21T05:47:31.462Z,932.27
2017-02-21T05:47:59.608Z,932.29
2017-02-21T05:48:27.612Z,932.27
2017-02-21T05:48:55.787Z,932.27
2017-02-21T05:49:23.923Z,932.25
2017-02-21T05:49:51.954Z,932.29
2017-02-21T05:50:20.079Z,932.26
2017-02-21T05:50:48.255Z,932.27
2017-02-21T05:51:16.369Z,932.28
2017-02-21T05:51:44.440Z,932.28
2017-02-21T05:52:12.518Z,932.27
2017-02-21T05:52:40.656Z,932.3